Terminal Aerodrome Forecast
Issued by NWS

Home | Current Version | Previous Version | Text Only | Print | Product List | Glossary On
Versions: 1 2 3 4 5 6 7 8 9 10 11 12 13 14 15 16 17 18 19 20 21 22 23 24 25 26 27 28 29 30 31 32 33 34 35
511
FTUS41 KOKX 252102 AAB
TAFTEB
TAF AMD
KTEB 252102Z 2521/2624 24014G22KT P6SM FEW250
     FM260000 23009KT P6SM FEW250
     FM260600 VRB05KT P6SM FEW250
      TEMPO 2612/2615 5SM HZ
     FM261500 23007KT P6SM SCT060 BKN150
     FM261900 22008KT P6SM SCT060 BKN150=

USA.gov is the U.S. government's official web portal to all federal, state and local government web resources and services.